createdAt,value
2023-12-05T05:29:24.909Z,100210.16
2023-12-05T05:33:30.032Z,100210.16
2023-12-05T05:37:34.386Z,100225.31
2023-12-05T05:41:37.788Z,100220.59
2023-12-05T05:45:41.099Z,100219.84
2023-12-05T05:49:44.880Z,100223.87
2023-12-05T05:53:47.878Z,100224.81
2023-12-05T05:57:50.957Z,100230.69
2023-12-05T06:01:53.789Z,100229.06
2023-12-05T06:05:59.059Z,100224.38
2023-12-05T06:10:02.239Z,100233.13
2023-12-05T06:14:05.606Z,100227.66
2023-12-05T06:18:08.668Z,100231.62
2023-12-05T06:22:11.667Z,100226.97
2023-12-05T06:26:14.560Z,100216.72
2023-12-05T06:30:24.484Z,100226.91
2023-12-05T06:34:29.896Z,100239.34
2023-12-05T06:38:32.961Z,100235.53
2023-12-05T06:42:35.992Z,100232.75
2023-12-05T06:46:39.172Z,100233.16
2023-12-05T06:50:46.576Z,100228.56
2023-12-05T06:54:49.833Z,100240.78
2023-12-05T06:58:52.632Z,100232.59
2023-12-05T07:02:55.721Z,100223.31
2023-12-05T07:07:00.675Z,100220.44
2023-12-05T07:11:04.125Z,100216.16
2023-12-05T07:15:09.264Z,100224.16
2023-12-05T07:19:19.272Z,100227.16
2023-12-05T07:23:23.776Z,100229.34
2023-12-05T07:27:27.158Z,100226.72
2023-12-05T07:31:30.051Z,100230.72
2023-12-05T07:35:33.608Z,100245.66
2023-12-05T07:39:37.470Z,100241.38
2023-12-05T07:43:40.657Z,100257.75
2023-12-05T07:47:44.836Z,100255.38
2023-12-05T07:51:49.668Z,100259.66
2023-12-05T07:55:52.526Z,100251.66
2023-12-05T07:59:55.642Z,100250.59
2023-12-05T08:03:59.246Z,100254.03
2023-12-05T08:08:02.918Z,100257.78
2023-12-05T08:12:06.250Z,100251.47
2023-12-05T08:16:10.329Z,100245.56
2023-12-05T08:20:13.857Z,100240.53
2023-12-05T08:24:17.270Z,100249.81
2023-12-05T08:28:21.540Z,100256.16
2023-12-05T08:32:27.024Z,100255.22
2023-12-05T08:37:10.454Z,100258.38
2023-12-05T08:42:08.405Z,100252.44
2023-12-05T08:46:21.661Z,100242.78
2023-12-05T08:50:45.400Z,100262.16
2023-12-05T08:55:06.401Z,100252.44
2023-12-05T08:59:13.790Z,100244.28
2023-12-05T09:03:24.373Z,100237.41
2023-12-05T09:07:31.587Z,100249.47
2023-12-05T09:11:34.913Z,100246.12
2023-12-05T09:15:37.709Z,100241.84
2023-12-05T09:19:40.738Z,100240.56
2023-12-05T09:23:43.505Z,100242.59
2023-12-05T09:27:46.716Z,100239.91
2023-12-05T09:31:49.748Z,100232.03
2023-12-05T09:36:10.471Z,100226.47
2023-12-05T09:40:13.533Z,100225.47
2023-12-05T09:44:22.139Z,100218.41
2023-12-05T09:48:27.244Z,100211.28
2023-12-05T09:52:30.760Z,100212.28
2023-12-05T09:56:34.995Z,100206.69
2023-12-05T10:00:38.894Z,100201.38
2023-12-05T10:04:56.261Z,100201.81
2023-12-05T10:13:57.150Z,100191.88
2023-12-05T10:18:08.501Z,100168.00
2023-12-05T10:22:12.072Z,100171.94
2023-12-05T10:26:44.771Z,100162.69
2023-12-05T10:30:47.908Z,100153.09
2023-12-05T10:34:52.940Z,100159.94
2023-12-05T10:38:56.076Z,100160.34
2023-12-05T10:43:01.514Z,100161.34
2023-12-05T10:47:07.139Z,100147.03
2023-12-05T10:51:14.267Z,100155.25
2023-12-05T10:55:37.516Z,100154.16
2023-12-05T10:59:46.978Z,100149.75
2023-12-05T11:04:16.102Z,100137.66
2023-12-05T11:08:21.916Z,100135.59
2023-12-05T11:12:41.886Z,100140.59
2023-12-05T11:17:28.293Z,100131.63
2023-12-05T11:21:56.882Z,100132.88
2023-12-05T11:26:50.267Z,100124.78
2023-12-05T11:31:12.992Z,100125.72
2023-12-05T11:35:56.013Z,100132.28
2023-12-05T11:40:04.893Z,100132.69
2023-12-05T11:44:16.333Z,100126.44
2023-12-05T11:48:32.784Z,100115.25
2023-12-05T11:52:40.657Z,100124.87
2023-12-05T11:56:43.554Z,100128.72
2023-12-05T12:00:47.135Z,100122.44
2023-12-05T12:05:01.265Z,100116.84
2023-12-05T12:09:04.373Z,100118.44
2023-12-05T12:13:07.573Z,100116.09
2023-12-05T12:17:12.965Z,100113.69
2023-12-05T12:21:16.173Z,100107.12
2023-12-05T12:25:19.674Z,100110.63
2023-12-05T12:29:24.103Z,100120.59
2023-12-05T12:33:45.657Z,100117.69
2023-12-05T12:38:11.486Z,100110.78
2023-12-05T12:42:17.343Z,100106.34
2023-12-05T12:46:47.072Z,100105.63
2023-12-05T12:50:59.457Z,100092.69
2023-12-05T12:55:30.225Z,100096.66
2023-12-05T12:59:45.370Z,100097.31
2023-12-05T13:08:47.585Z,100090.41
2023-12-05T13:13:00.246Z,100092.91
2023-12-05T13:17:09.257Z,100098.06
2023-12-05T13:21:13.622Z,100097.97
2023-12-05T13:25:16.327Z,100095.16
2023-12-05T13:29:26.210Z,100101.87
2023-12-05T13:34:00.062Z,100099.72
2023-12-05T13:38:05.989Z,100095.19
2023-12-05T13:42:08.687Z,100108.09
2023-12-05T13:46:15.557Z,100098.31
2023-12-05T13:50:20.355Z,100105.09
2023-12-05T13:54:23.891Z,100100.47
2023-12-05T13:58:26.740Z,100101.31
2023-12-05T14:02:30.004Z,100093.91
2023-12-05T14:06:33.279Z,100093.63
2023-12-05T14:10:36.550Z,100100.78
2023-12-05T14:14:43.174Z,100094.13
2023-12-05T14:18:45.982Z,100094.87
2023-12-05T14:22:49.212Z,100092.50
2023-12-05T14:26:51.972Z,100097.25
2023-12-05T14:30:55.309Z,100103.25
2023-12-05T14:34:58.248Z,100093.66
2023-12-05T14:39:07.802Z,100090.06
2023-12-05T14:43:13.616Z,100096.78
2023-12-05T14:47:16.674Z,100095.91
2023-12-05T14:51:19.428Z,100092.56
2023-12-05T14:55:22.513Z,100096.75
2023-12-05T14:59:25.345Z,100101.09
2023-12-05T15:03:28.574Z,100102.06
2023-12-05T15:07:31.488Z,100091.50
2023-12-05T15:11:35.392Z,100094.59
2023-12-05T15:15:38.158Z,100093.03
2023-12-05T15:20:17.265Z,100092.06
2023-12-05T15:24:04.498Z,100102.00
2023-12-05T15:28:08.909Z,100094.78
2023-12-05T15:32:11.767Z,100106.56
2023-12-05T15:36:14.836Z,100107.94
2023-12-05T15:40:17.786Z,100107.81
2023-12-05T15:44:20.996Z,100109.72
2023-12-05T15:48:43.315Z,100120.44
2023-12-05T15:52:47.603Z,100116.91
2023-12-05T15:56:50.910Z,100111.91
2023-12-05T16:00:59.213Z,100114.66
2023-12-05T16:05:03.521Z,100118.37
2023-12-05T16:09:06.285Z,100123.13
2023-12-05T16:13:09.389Z,100113.19
